sensor_id;sensor_type;location;lat;lon;timestamp;pressure;altitude;pressure_sealevel;temperature;humidity
46412;BME280;32113;42.012;24.870;2023-06-05T00:00:38;99455.59;;;20.04;68.18
46412;BME280;32113;42.012;24.870;2023-06-05T00:03:03;99459.53;;;19.92;70.57
46412;BME280;32113;42.012;24.870;2023-06-05T00:05:29;99462.56;;;20.04;71.13
46412;BME280;32113;42.012;24.870;2023-06-05T00:07:54;99461.50;;;20.08;71.45
46412;BME280;32113;42.012;24.870;2023-06-05T00:10:19;99463.13;;;20.11;71.94
46412;BME280;32113;42.012;24.870;2023-06-05T00:12:45;99461.25;;;20.14;72.29
46412;BME280;32113;42.012;24.870;2023-06-05T00:15:10;99468.00;;;20.18;71.94
46412;BME280;32113;42.012;24.870;2023-06-05T00:17:36;99459.31;;;20.19;71.83
46412;BME280;32113;42.012;24.870;2023-06-05T00:20:02;99462.94;;;20.15;71.91
46412;BME280;32113;42.012;24.870;2023-06-05T00:22:28;99464.16;;;19.86;72.71
46412;BME280;32113;42.012;24.870;2023-06-05T00:24:53;99466.72;;;19.87;71.75
46412;BME280;32113;42.012;24.870;2023-06-05T00:27:19;99466.78;;;19.86;70.88
46412;BME280;32113;42.012;24.870;2023-06-05T00:29:44;99460.47;;;19.91;70.70
46412;BME280;32113;42.012;24.870;2023-06-05T00:32:10;99456.19;;;19.90;70.22
46412;BME280;32113;42.012;24.870;2023-06-05T00:34:35;99460.47;;;19.91;70.30
46412;BME280;32113;42.012;24.870;2023-06-05T00:37:01;99458.50;;;19.96;70.39
46412;BME280;32113;42.012;24.870;2023-06-05T00:39:26;99452.28;;;20.01;70.46
46412;BME280;32113;42.012;24.870;2023-06-05T00:41:52;99455.47;;;20.07;70.29
46412;BME280;32113;42.012;24.870;2023-06-05T00:44:17;99446.53;;;20.13;69.90
46412;BME280;32113;42.012;24.870;2023-06-05T00:46:43;99450.13;;;20.11;70.05
46412;BME280;32113;42.012;24.870;2023-06-05T00:49:08;99457.34;;;20.04;70.11
46412;BME280;32113;42.012;24.870;2023-06-05T00:51:34;99454.63;;;20.07;70.41
46412;BME280;32113;42.012;24.870;2023-06-05T00:54:00;99452.81;;;20.09;70.60
46412;BME280;32113;42.012;24.870;2023-06-05T00:56:26;99447.44;;;20.12;70.62
46412;BME280;32113;42.012;24.870;2023-06-05T00:58:52;99446.22;;;19.79;71.69
46412;BME280;32113;42.012;24.870;2023-06-05T01:01:17;99452.47;;;19.75;71.97
46412;BME280;32113;42.012;24.870;2023-06-05T01:03:45;99449.97;;;19.51;72.69
46412;BME280;32113;42.012;24.870;2023-06-05T01:06:12;99451.97;;;19.45;72.82
46412;BME280;32113;42.012;24.870;2023-06-05T01:08:38;99452.50;;;19.30;72.00
46412;BME280;32113;42.012;24.870;2023-06-05T01:13:42;99450.22;;;19.23;71.58
46412;BME280;32113;42.012;24.870;2023-06-05T01:16:09;99459.06;;;19.19;70.77
46412;BME280;32113;42.012;24.870;2023-06-05T01:18:36;99458.88;;;19.23;70.59
46412;BME280;32113;42.012;24.870;2023-06-05T01:21:09;99458.53;;;19.33;70.37
46412;BME280;32113;42.012;24.870;2023-06-05T01:23:38;99455.88;;;19.34;70.65
46412;BME280;32113;42.012;24.870;2023-06-05T01:26:10;99454.84;;;19.38;71.69
46412;BME280;32113;42.012;24.870;2023-06-05T01:28:37;99450.13;;;19.47;71.85
46412;BME280;32113;42.012;24.870;2023-06-05T01:31:04;99446.25;;;19.57;71.55
46412;BME280;32113;42.012;24.870;2023-06-05T01:33:42;99450.28;;;19.64;71.42
46412;BME280;32113;42.012;24.870;2023-06-05T01:36:10;99449.91;;;19.74;71.04
46412;BME280;32113;42.012;24.870;2023-06-05T01:38:36;99449.78;;;19.77;71.04
46412;BME280;32113;42.012;24.870;2023-06-05T01:41:03;99450.56;;;19.79;70.74
46412;BME280;32113;42.012;24.870;2023-06-05T01:43:29;99448.88;;;19.78;70.39
46412;BME280;32113;42.012;24.870;2023-06-05T01:45:55;99451.22;;;19.84;69.98
46412;BME280;32113;42.012;24.870;2023-06-05T01:48:22;99451.47;;;19.78;69.63
46412;BME280;32113;42.012;24.870;2023-06-05T01:50:48;99452.31;;;19.78;69.11
46412;BME280;32113;42.012;24.870;2023-06-05T01:53:14;99456.94;;;19.72;69.20
46412;BME280;32113;42.012;24.870;2023-06-05T01:55:42;99458.09;;;19.64;69.57
46412;BME280;32113;42.012;24.870;2023-06-05T01:58:07;99459.47;;;19.52;70.23
46412;BME280;32113;42.012;24.870;2023-06-05T02:00:32;99461.94;;;19.55;70.33
46412;BME280;32113;42.012;24.870;2023-06-05T02:03:00;99465.25;;;19.59;70.26
46412;BME280;32113;42.012;24.870;2023-06-05T02:05:25;99468.91;;;19.55;70.28
46412;BME280;32113;42.012;24.870;2023-06-05T02:07:54;99476.97;;;19.49;70.17
46412;BME280;32113;42.012;24.870;2023-06-05T02:10:23;99475.19;;;19.49;70.12
46412;BME280;32113;42.012;24.870;2023-06-05T02:12:48;99477.00;;;19.47;70.10
46412;BME280;32113;42.012;24.870;2023-06-05T02:15:14;99479.03;;;19.40;70.39
46412;BME280;32113;42.012;24.870;2023-06-05T02:17:43;99488.34;;;19.46;70.10
46412;BME280;32113;42.012;24.870;2023-06-05T02:20:15;99488.50;;;19.41;70.40
46412;BME280;32113;42.012;24.870;2023-06-05T02:22:41;99489.38;;;19.42;70.61
46412;BME280;32113;42.012;24.870;2023-06-05T02:25:07;99493.59;;;19.45;70.68
46412;BME280;32113;42.012;24.870;2023-06-05T02:27:32;99490.44;;;19.36;71.30
46412;BME280;32113;42.012;24.870;2023-06-05T02:29:57;99494.56;;;19.42;71.47
46412;BME280;32113;42.012;24.870;2023-06-05T02:32:23;99493.09;;;19.35;72.00
46412;BME280;32113;42.012;24.870;2023-06-05T02:34:53;99491.31;;;19.37;71.97
46412;BME280;32113;42.012;24.870;2023-06-05T02:37:22;99489.53;;;19.37;72.26
46412;BME280;32113;42.012;24.870;2023-06-05T02:39:47;99489.59;;;19.36;72.39
46412;BME280;32113;42.012;24.870;2023-06-05T02:42:13;99495.66;;;19.36;72.10
46412;BME280;32113;42.012;24.870;2023-06-05T02:44:38;99495.59;;;19.38;72.29
46412;BME280;32113;42.012;24.870;2023-06-05T02:47:03;99496.25;;;19.43;72.17
46412;BME280;32113;42.012;24.870;2023-06-05T02:49:29;99498.81;;;19.45;71.83
46412;BME280;32113;42.012;24.870;2023-06-05T02:51:54;99496.88;;;19.50;71.87
46412;BME280;32113;42.012;24.870;2023-06-05T02:54:20;99491.53;;;19.53;71.56
46412;BME280;32113;42.012;24.870;2023-06-05T02:56:46;99490.94;;;19.46;71.45
46412;BME280;32113;42.012;24.870;2023-06-05T02:59:12;99488.41;;;19.45;71.02
46412;BME280;32113;42.012;24.870;2023-06-05T03:01:37;99487.59;;;19.42;71.31
46412;BME280;32113;42.012;24.870;2023-06-05T03:04:03;99483.31;;;19.41;71.37
46412;BME280;32113;42.012;24.870;2023-06-05T03:06:29;99481.50;;;19.43;71.32
46412;BME280;32113;42.012;24.870;2023-06-05T03:08:58;99489.91;;;19.50;71.03
46412;BME280;32113;42.012;24.870;2023-06-05T03:11:24;99486.47;;;19.50;71.45
46412;BME280;32113;42.012;24.870;2023-06-05T03:13:50;99480.22;;;19.54;71.07
46412;BME280;32113;42.012;24.870;2023-06-05T03:16:15;99491.59;;;19.51;71.14
46412;BME280;32113;42.012;24.870;2023-06-05T03:18:42;99484.78;;;19.49;71.46
46412;BME280;32113;42.012;24.870;2023-06-05T03:21:08;99484.81;;;19.47;71.74
46412;BME280;32113;42.012;24.870;2023-06-05T03:23:35;99488.03;;;19.54;71.23
46412;BME280;32113;42.012;24.870;2023-06-05T03:26:00;99483.59;;;19.56;70.89
46412;BME280;32113;42.012;24.870;2023-06-05T03:28:27;99479.97;;;19.60;70.38
46412;BME280;32113;42.012;24.870;2023-06-05T03:30:52;99481.72;;;19.60;70.29
46412;BME280;32113;42.012;24.870;2023-06-05T03:33:17;99481.66;;;19.61;70.54
46412;BME280;32113;42.012;24.870;2023-06-05T03:35:43;99484.13;;;19.64;69.73
46412;BME280;32113;42.012;24.870;2023-06-05T03:38:11;99488.63;;;19.61;69.78
46412;BME280;32113;42.012;24.870;2023-06-05T03:40:36;99481.84;;;19.56;68.94
46412;BME280;32113;42.012;24.870;2023-06-05T03:43:06;99482.81;;;19.54;68.90
46412;BME280;32113;42.012;24.870;2023-06-05T03:45:33;99487.38;;;19.49;69.35
46412;BME280;32113;42.012;24.870;2023-06-05T03:47:58;99481.31;;;19.48;69.35
46412;BME280;32113;42.012;24.870;2023-06-05T03:50:25;99477.19;;;19.42;69.43
46412;BME280;32113;42.012;24.870;2023-06-05T03:52:50;99478.09;;;19.41;69.52
46412;BME280;32113;42.012;24.870;2023-06-05T03:55:20;99478.91;;;19.43;69.22
46412;BME280;32113;42.012;24.870;2023-06-05T03:57:49;99474.78;;;19.38;69.33
46412;BME280;32113;42.012;24.870;2023-06-05T04:00:14;99471.22;;;19.40;69.22
46412;BME280;32113;42.012;24.870;2023-06-05T04:02:41;99466.00;;;19.40;69.05
46412;BME280;32113;42.012;24.870;2023-06-05T04:05:07;99465.91;;;19.43;69.15
46412;BME280;32113;42.012;24.870;2023-06-05T04:07:36;99465.03;;;19.43;69.32
46412;BME280;32113;42.012;24.870;2023-06-05T04:10:02;99458.09;;;19.43;69.06
46412;BME280;32113;42.012;24.870;2023-06-05T04:12:27;99455.78;;;19.36;67.42
46412;BME280;32113;42.012;24.870;2023-06-05T04:14:53;99467.91;;;19.37;67.11
46412;BME280;32113;42.012;24.870;2023-06-05T04:17:19;99459.44;;;19.32;66.75
46412;BME280;32113;42.012;24.870;2023-06-05T04:19:44;99460.16;;;19.35;66.73
46412;BME280;32113;42.012;24.870;2023-06-05T04:22:09;99461.56;;;19.42;65.27
46412;BME280;32113;42.012;24.870;2023-06-05T04:24:35;99467.03;;;19.36;62.94
46412;BME280;32113;42.012;24.870;2023-06-05T04:27:00;99475.56;;;19.40;68.38
46412;BME280;32113;42.012;24.870;2023-06-05T04:29:26;99478.34;;;19.35;62.94
46412;BME280;32113;42.012;24.870;2023-06-05T04:31:51;99475.38;;;19.45;62.06
46412;BME280;32113;42.012;24.870;2023-06-05T04:34:17;99470.13;;;19.46;62.59
46412;BME280;32113;42.012;24.870;2023-06-05T04:36:45;99466.66;;;19.46;62.41
46412;BME280;32113;42.012;24.870;2023-06-05T04:39:14;99471.50;;;19.55;61.04
46412;BME280;32113;42.012;24.870;2023-06-05T04:41:41;99466.28;;;19.55;60.89
46412;BME280;32113;42.012;24.870;2023-06-05T04:44:10;99469.56;;;19.60;59.83
46412;BME280;32113;42.012;24.870;2023-06-05T04:46:36;99472.16;;;19.60;59.53
46412;BME280;32113;42.012;24.870;2023-06-05T04:49:04;99461.47;;;19.66;58.33
46412;BME280;32113;42.012;24.870;2023-06-05T04:51:29;99460.59;;;19.67;57.86
46412;BME280;32113;42.012;24.870;2023-06-05T04:53:55;99466.50;;;19.71;57.99
46412;BME280;32113;42.012;24.870;2023-06-05T04:56:20;99466.25;;;19.77;58.72
46412;BME280;32113;42.012;24.870;2023-06-05T04:58:49;99472.19;;;19.81;58.89
46412;BME280;32113;42.012;24.870;2023-06-05T05:01:16;99473.53;;;19.90;58.96
46412;BME280;32113;42.012;24.870;2023-06-05T05:03:41;99473.34;;;19.94;59.00
46412;BME280;32113;42.012;24.870;2023-06-05T05:06:07;99471.28;;;20.03;59.13
46412;BME280;32113;42.012;24.870;2023-06-05T05:08:33;99474.69;;;20.05;59.20
46412;BME280;32113;42.012;24.870;2023-06-05T05:10:58;99484.31;;;20.24;58.33
46412;BME280;32113;42.012;24.870;2023-06-05T05:13:23;99487.28;;;20.35;58.33
46412;BME280;32113;42.012;24.870;2023-06-05T05:15:49;99489.94;;;20.54;58.70
46412;BME280;32113;42.012;24.870;2023-06-05T05:18:17;99493.22;;;20.77;58.17
46412;BME280;32113;42.012;24.870;2023-06-05T05:20:43;99496.78;;;20.95;56.76
46412;BME280;32113;42.012;24.870;2023-06-05T05:23:08;99497.06;;;21.08;56.39
46412;BME280;32113;42.012;24.870;2023-06-05T05:25:34;99498.47;;;21.16;56.77
46412;BME280;32113;42.012;24.870;2023-06-05T05:27:59;99507.75;;;21.21;56.60
46412;BME280;32113;42.012;24.870;2023-06-05T05:30:24;99508.31;;;21.28;56.72
46412;BME280;32113;42.012;24.870;2023-06-05T05:32:50;99514.25;;;21.32;56.65
46412;BME280;32113;42.012;24.870;2023-06-05T05:35:15;99512.25;;;21.37;56.36
46412;BME280;32113;42.012;24.870;2023-06-05T05:37:40;99513.81;;;21.41;56.39
46412;BME280;32113;42.012;24.870;2023-06-05T05:40:06;99516.88;;;21.49;56.28
46412;BME280;32113;42.012;24.870;2023-06-05T05:42:32;99523.00;;;21.48;56.47
46412;BME280;32113;42.012;24.870;2023-06-05T05:44:57;99528.25;;;21.48;57.12
46412;BME280;32113;42.012;24.870;2023-06-05T05:47:22;99526.38;;;21.33;58.58
46412;BME280;32113;42.012;24.870;2023-06-05T05:49:47;99524.25;;;21.22;59.73
46412;BME280;32113;42.012;24.870;2023-06-05T05:52:13;99527.00;;;21.19;60.29
46412;BME280;32113;42.012;24.870;2023-06-05T05:54:38;99523.22;;;21.26;60.95
46412;BME280;32113;42.012;24.870;2023-06-05T05:57:03;99526.38;;;21.33;62.64
46412;BME280;32113;42.012;24.870;2023-06-05T05:59:29;99528.91;;;21.34;63.43
46412;BME280;32113;42.012;24.870;2023-06-05T06:01:55;99514.78;;;21.38;63.77
46412;BME280;32113;42.012;24.870;2023-06-05T06:04:21;99518.94;;;21.43;64.22
46412;BME280;32113;42.012;24.870;2023-06-05T06:06:46;99524.63;;;21.51;64.15
46412;BME280;32113;42.012;24.870;2023-06-05T06:09:17;99532.31;;;21.54;64.39
46412;BME280;32113;42.012;24.870;2023-06-05T06:11:43;99530.72;;;21.51;64.79
46412;BME280;32113;42.012;24.870;2023-06-05T06:14:09;99525.97;;;21.60;64.81
46412;BME280;32113;42.012;24.870;2023-06-05T06:16:36;99528.47;;;21.61;64.59
46412;BME280;32113;42.012;24.870;2023-06-05T06:19:01;99529.25;;;21.63;64.41
46412;BME280;32113;42.012;24.870;2023-06-05T06:21:26;99531.81;;;21.65;64.04
46412;BME280;32113;42.012;24.870;2023-06-05T06:23:52;99538.09;;;21.61;63.73
46412;BME280;32113;42.012;24.870;2023-06-05T06:26:17;99525.94;;;21.42;64.71
46412;BME280;32113;42.012;24.870;2023-06-05T06:28:42;99534.03;;;21.36;65.43
46412;BME280;32113;42.012;24.870;2023-06-05T06:31:07;99533.97;;;21.37;65.67
46412;BME280;32113;42.012;24.870;2023-06-05T06:33:33;99546.56;;;21.47;65.60
46412;BME280;32113;42.012;24.870;2023-06-05T06:36:01;99543.28;;;21.43;65.57
46412;BME280;32113;42.012;24.870;2023-06-05T06:38:28;99531.78;;;21.47;65.21
46412;BME280;32113;42.012;24.870;2023-06-05T06:40:58;99535.22;;;21.48;65.74
46412;BME280;32113;42.012;24.870;2023-06-05T06:43:24;99540.28;;;21.51;65.48
46412;BME280;32113;42.012;24.870;2023-06-05T06:45:49;99525.31;;;21.55;65.59
46412;BME280;32113;42.012;24.870;2023-06-05T06:48:18;99527.34;;;21.67;65.50
46412;BME280;32113;42.012;24.870;2023-06-05T06:50:43;99524.16;;;21.79;64.65
46412;BME280;32113;42.012;24.870;2023-06-05T06:53:09;99520.38;;;21.85;64.47
46412;BME280;32113;42.012;24.870;2023-06-05T06:55:34;99515.56;;;21.95;64.37
46412;BME280;32113;42.012;24.870;2023-06-05T06:57:59;99518.31;;;22.10;64.04
46412;BME280;32113;42.012;24.870;2023-06-05T07:00:25;99520.69;;;22.14;63.86
46412;BME280;32113;42.012;24.870;2023-06-05T07:02:50;99520.31;;;22.22;64.32
46412;BME280;32113;42.012;24.870;2023-06-05T07:05:16;99523.88;;;22.37;63.46
46412;BME280;32113;42.012;24.870;2023-06-05T07:07:42;99525.19;;;22.46;62.41
46412;BME280;32113;42.012;24.870;2023-06-05T07:10:08;99528.72;;;22.45;62.09
46412;BME280;32113;42.012;24.870;2023-06-05T07:12:33;99518.28;;;22.45;62.74
46412;BME280;32113;42.012;24.870;2023-06-05T07:14:59;99519.56;;;22.54;62.77
46412;BME280;32113;42.012;24.870;2023-06-05T07:17:24;99513.00;;;22.63;62.33
46412;BME280;32113;42.012;24.870;2023-06-05T07:19:52;99521.06;;;22.76;61.21
46412;BME280;32113;42.012;24.870;2023-06-05T07:22:17;99518.19;;;22.80;61.16
46412;BME280;32113;42.012;24.870;2023-06-05T07:24:42;99520.19;;;22.75;61.60
46412;BME280;32113;42.012;24.870;2023-06-05T07:27:08;99523.25;;;22.83;62.01
46412;BME280;32113;42.012;24.870;2023-06-05T07:29:33;99515.47;;;22.82;61.39
46412;BME280;32113;42.012;24.870;2023-06-05T07:31:59;99515.13;;;22.88;61.10
46412;BME280;32113;42.012;24.870;2023-06-05T07:34:24;99518.78;;;22.86;61.23
46412;BME280;32113;42.012;24.870;2023-06-05T07:36:51;99515.50;;;22.98;61.07
46412;BME280;32113;42.012;24.870;2023-06-05T07:39:17;99507.97;;;23.08;61.17
46412;BME280;32113;42.012;24.870;2023-06-05T07:41:42;99514.47;;;23.17;60.85
46412;BME280;32113;42.012;24.870;2023-06-05T07:44:09;99526.78;;;23.31;60.51
46412;BME280;32113;42.012;24.870;2023-06-05T07:46:34;99525.78;;;23.33;59.85
46412;BME280;32113;42.012;24.870;2023-06-05T07:49:00;99523.34;;;23.46;59.08
46412;BME280;32113;42.012;24.870;2023-06-05T07:51:25;99524.59;;;23.55;58.69
46412;BME280;32113;42.012;24.870;2023-06-05T07:53:51;99525.81;;;23.64;58.50
46412;BME280;32113;42.012;24.870;2023-06-05T07:56:16;99522.47;;;23.62;58.55
46412;BME280;32113;42.012;24.870;2023-06-05T07:58:42;99529.47;;;23.61;58.96
46412;BME280;32113;42.012;24.870;2023-06-05T08:01:07;99524.91;;;23.65;58.69
46412;BME280;32113;42.012;24.870;2023-06-05T08:03:33;99527.34;;;23.68;59.15
46412;BME280;32113;42.012;24.870;2023-06-05T08:05:58;99528.03;;;23.72;58.53
46412;BME280;32113;42.012;24.870;2023-06-05T08:08:23;99532.13;;;23.76;58.36
46412;BME280;32113;42.012;24.870;2023-06-05T08:10:48;99533.06;;;23.75;58.68
46412;BME280;32113;42.012;24.870;2023-06-05T08:13:14;99534.38;;;23.68;57.96
46412;BME280;32113;42.012;24.870;2023-06-05T08:15:40;99529.31;;;23.65;58.43
46412;BME280;32113;42.012;24.870;2023-06-05T08:18:05;99528.38;;;23.66;58.42
46412;BME280;32113;42.012;24.870;2023-06-05T08:20:30;99530.44;;;23.75;58.83
46412;BME280;32113;42.012;24.870;2023-06-05T08:22:56;99524.13;;;23.94;58.63
46412;BME280;32113;42.012;24.870;2023-06-05T08:25:23;99525.03;;;24.09;57.15
46412;BME280;32113;42.012;24.870;2023-06-05T08:27:48;99514.84;;;24.19;56.45
46412;BME280;32113;42.012;24.870;2023-06-05T08:30:13;99512.69;;;24.25;56.39
46412;BME280;32113;42.012;24.870;2023-06-05T08:32:39;99507.75;;;24.50;55.65
46412;BME280;32113;42.012;24.870;2023-06-05T08:35:05;99501.38;;;24.69;54.83
46412;BME280;32113;42.012;24.870;2023-06-05T08:37:31;99495.84;;;24.88;55.15
46412;BME280;32113;42.012;24.870;2023-06-05T08:39:56;99490.34;;;25.05;55.02
46412;BME280;32113;42.012;24.870;2023-06-05T08:42:25;99475.75;;;25.29;53.82
46412;BME280;32113;42.012;24.870;2023-06-05T08:44:53;99480.63;;;25.48;52.85
46412;BME280;32113;42.012;24.870;2023-06-05T08:47:18;99477.75;;;25.66;51.56
46412;BME280;32113;42.012;24.870;2023-06-05T08:49:44;99472.41;;;25.67;51.45
46412;BME280;32113;42.012;24.870;2023-06-05T08:52:10;99476.59;;;25.83;50.39
46412;BME280;32113;42.012;24.870;2023-06-05T08:54:38;99472.44;;;25.93;50.83
46412;BME280;32113;42.012;24.870;2023-06-05T08:57:05;99467.47;;;26.02;49.68
46412;BME280;32113;42.012;24.870;2023-06-05T08:59:31;99469.56;;;25.96;50.29
46412;BME280;32113;42.012;24.870;2023-06-05T09:01:57;99466.84;;;26.11;50.96
46412;BME280;32113;42.012;24.870;2023-06-05T09:04:23;99469.38;;;26.26;50.14
46412;BME280;32113;42.012;24.870;2023-06-05T09:06:49;99468.84;;;26.46;48.99
46412;BME280;32113;42.012;24.870;2023-06-05T09:09:17;99461.75;;;26.60;47.85
46412;BME280;32113;42.012;24.870;2023-06-05T09:11:43;99465.88;;;26.64;47.27
46412;BME280;32113;42.012;24.870;2023-06-05T09:14:08;99469.50;;;26.74;45.73
46412;BME280;32113;42.012;24.870;2023-06-05T09:16:35;99460.97;;;26.84;45.87
46412;BME280;32113;42.012;24.870;2023-06-05T09:19:02;99459.75;;;27.01;46.11
46412;BME280;32113;42.012;24.870;2023-06-05T09:21:28;99454.44;;;27.14;45.46
46412;BME280;32113;42.012;24.870;2023-06-05T09:26:46;99450.47;;;27.44;44.45
46412;BME280;32113;42.012;24.870;2023-06-05T09:29:12;99453.34;;;27.52;44.59
46412;BME280;32113;42.012;24.870;2023-06-05T09:31:43;99444.78;;;27.62;44.11
46412;BME280;32113;42.012;24.870;2023-06-05T09:34:08;99449.47;;;27.70;43.69
46412;BME280;32113;42.012;24.870;2023-06-05T09:36:34;99434.41;;;27.72;44.02
46412;BME280;32113;42.012;24.870;2023-06-05T09:39:13;99436.56;;;27.78;43.34
46412;BME280;32113;42.012;24.870;2023-06-05T09:41:42;99430.94;;;27.83;42.83
46412;BME280;32113;42.012;24.870;2023-06-05T09:44:08;99428.31;;;27.83;43.74
46412;BME280;32113;42.012;24.870;2023-06-05T09:46:33;99431.44;;;27.88;43.23
46412;BME280;32113;42.012;24.870;2023-06-05T09:49:01;99428.53;;;27.91;42.65
46412;BME280;32113;42.012;24.870;2023-06-05T09:51:26;99417.53;;;27.97;42.36
46412;BME280;32113;42.012;24.870;2023-06-05T09:53:52;99409.63;;;27.97;42.59
46412;BME280;32113;42.012;24.870;2023-06-05T09:56:18;99408.53;;;28.00;41.95
46412;BME280;32113;42.012;24.870;2023-06-05T09:58:48;99412.50;;;28.05;41.87
46412;BME280;32113;42.012;24.870;2023-06-05T10:01:22;99412.59;;;28.15;42.08
46412;BME280;32113;42.012;24.870;2023-06-05T10:03:58;99407.09;;;28.18;40.51
46412;BME280;32113;42.012;24.870;2023-06-05T10:06:26;99404.56;;;28.17;42.95
46412;BME280;32113;42.012;24.870;2023-06-05T10:08:53;99405.16;;;28.20;41.50
46412;BME280;32113;42.012;24.870;2023-06-05T10:11:20;99412.25;;;28.20;40.44
46412;BME280;32113;42.012;24.870;2023-06-05T10:13:46;99408.66;;;28.21;40.51
46412;BME280;32113;42.012;24.870;2023-06-05T10:16:12;99407.81;;;28.09;41.13
46412;BME280;32113;42.012;24.870;2023-06-05T10:18:37;99395.69;;;28.18;40.71
46412;BME280;32113;42.012;24.870;2023-06-05T10:21:03;99397.03;;;28.24;41.40
46412;BME280;32113;42.012;24.870;2023-06-05T10:23:29;99400.75;;;28.21;40.77
46412;BME280;32113;42.012;24.870;2023-06-05T10:25:54;99387.56;;;28.32;40.89
46412;BME280;32113;42.012;24.870;2023-06-05T10:38:36;99387.22;;;28.70;39.69
46412;BME280;32113;42.012;24.870;2023-06-05T10:41:03;99382.28;;;28.77;40.08
46412;BME280;32113;42.012;24.870;2023-06-05T10:43:30;99373.28;;;28.79;39.06
46412;BME280;32113;42.012;24.870;2023-06-05T10:45:57;99372.06;;;28.83;39.05
46412;BME280;32113;42.012;24.870;2023-06-05T10:49:05;99369.19;;;28.87;38.42
46412;BME280;32113;42.012;24.870;2023-06-05T10:51:50;99368.56;;;28.94;38.81
46412;BME280;32113;42.012;24.870;2023-06-05T10:53:56;99363.06;;;28.97;38.42
46412;BME280;32113;42.012;24.870;2023-06-05T10:59:11;99358.09;;;29.04;37.31
46412;BME280;32113;42.012;24.870;2023-06-05T11:01:38;99354.03;;;29.00;36.65
46412;BME280;32113;42.012;24.870;2023-06-05T11:04:03;99354.72;;;29.02;36.62
46412;BME280;32113;42.012;24.870;2023-06-05T11:06:29;99355.81;;;29.00;36.94
46412;BME280;32113;42.012;24.870;2023-06-05T11:09:11;99351.88;;;28.94;37.25
46412;BME280;32113;42.012;24.870;2023-06-05T11:11:58;99351.13;;;29.03;36.50
46412;BME280;32113;42.012;24.870;2023-06-05T11:14:24;99347.09;;;28.88;36.23
46412;BME280;32113;42.012;24.870;2023-06-05T11:16:49;99347.34;;;28.96;36.85
46412;BME280;32113;42.012;24.870;2023-06-05T11:24:24;99336.91;;;29.16;35.18
46412;BME280;32113;42.012;24.870;2023-06-05T11:26:50;99347.34;;;28.96;35.27
46412;BME280;32113;42.012;24.870;2023-06-05T11:29:15;99340.13;;;28.87;35.55
46412;BME280;32113;42.012;24.870;2023-06-05T11:31:42;99334.81;;;28.98;35.65
46412;BME280;32113;42.012;24.870;2023-06-05T11:34:11;99335.31;;;28.59;36.23
46412;BME280;32113;42.012;24.870;2023-06-05T11:36:37;99336.25;;;28.69;35.98
46412;BME280;32113;42.012;24.870;2023-06-05T11:39:03;99338.13;;;28.79;34.69
46412;BME280;32113;42.012;24.870;2023-06-05T11:41:28;99343.41;;;28.79;34.52
46412;BME280;32113;42.012;24.870;2023-06-05T11:43:54;99335.41;;;28.69;34.64
46412;BME280;32113;42.012;24.870;2023-06-05T11:46:34;99337.81;;;28.72;34.04
46412;BME280;32113;42.012;24.870;2023-06-05T11:49:00;99337.53;;;28.75;33.41
46412;BME280;32113;42.012;24.870;2023-06-05T11:51:27;99325.28;;;28.85;34.31
46412;BME280;32113;42.012;24.870;2023-06-05T11:53:56;99328.41;;;28.91;32.82
46412;BME280;32113;42.012;24.870;2023-06-05T11:56:24;99327.53;;;28.90;32.59
46412;BME280;32113;42.012;24.870;2023-06-05T11:58:52;99320.13;;;28.84;33.12
46412;BME280;32113;42.012;24.870;2023-06-05T12:01:18;99326.69;;;28.90;32.76
46412;BME280;32113;42.012;24.870;2023-06-05T12:03:46;99314.34;;;28.90;33.01
46412;BME280;32113;42.012;24.870;2023-06-05T12:06:12;99322.03;;;28.93;33.34
46412;BME280;32113;42.012;24.870;2023-06-05T12:08:38;99329.50;;;29.09;33.69
46412;BME280;32113;42.012;24.870;2023-06-05T12:11:18;99311.66;;;29.23;32.66
46412;BME280;32113;42.012;24.870;2023-06-05T12:13:56;99304.72;;;29.32;32.00
46412;BME280;32113;42.012;24.870;2023-06-05T12:16:34;99321.69;;;29.29;32.27
46412;BME280;32113;42.012;24.870;2023-06-05T12:19:00;99320.19;;;29.36;33.05
46412;BME280;32113;42.012;24.870;2023-06-05T12:21:26;99319.94;;;29.18;31.96
46412;BME280;32113;42.012;24.870;2023-06-05T12:24:00;99316.63;;;29.16;32.61
46412;BME280;32113;42.012;24.870;2023-06-05T12:26:25;99323.81;;;29.14;32.55
46412;BME280;32113;42.012;24.870;2023-06-05T12:29:01;99316.66;;;29.26;33.05
46412;BME280;32113;42.012;24.870;2023-06-05T12:31:36;99312.34;;;29.25;32.51
46412;BME280;32113;42.012;24.870;2023-06-05T12:34:04;99312.09;;;29.07;32.45
46412;BME280;32113;42.012;24.870;2023-06-05T12:36:29;99304.88;;;29.09;31.95
46412;BME280;32113;42.012;24.870;2023-06-05T12:39:01;99315.19;;;29.12;32.69
46412;BME280;32113;42.012;24.870;2023-06-05T12:41:28;99316.47;;;29.18;32.60
46412;BME280;32113;42.012;24.870;2023-06-05T12:44:00;99306.94;;;29.27;32.72
46412;BME280;32113;42.012;24.870;2023-06-05T12:46:25;99307.38;;;29.32;32.03
46412;BME280;32113;42.012;24.870;2023-06-05T12:48:51;99311.88;;;29.41;31.68
46412;BME280;32113;42.012;24.870;2023-06-05T12:51:16;99303.50;;;29.57;32.32
46412;BME280;32113;42.012;24.870;2023-06-05T12:53:42;99309.75;;;29.56;31.00
46412;BME280;32113;42.012;24.870;2023-06-05T12:56:07;99308.72;;;29.26;32.04
46412;BME280;32113;42.012;24.870;2023-06-05T12:58:33;99302.09;;;29.32;31.99
46412;BME280;32113;42.012;24.870;2023-06-05T13:00:58;99295.66;;;29.24;31.72
46412;BME280;32113;42.012;24.870;2023-06-05T13:03:24;99301.38;;;29.30;31.85
46412;BME280;32113;42.012;24.870;2023-06-05T13:05:50;99300.44;;;29.31;31.48
46412;BME280;32113;42.012;24.870;2023-06-05T13:08:15;99298.81;;;29.18;31.18
46412;BME280;32113;42.012;24.870;2023-06-05T13:10:40;99292.06;;;29.26;31.79